createdAt,value
2023-02-15T00:01:58.850Z,58.79
2023-02-15T00:04:45.715Z,58.79
2023-02-15T00:07:13.605Z,58.81
2023-02-15T00:09:40.267Z,58.75
2023-02-15T00:12:06.857Z,58.97
2023-02-15T00:14:33.517Z,58.99
2023-02-15T00:17:00.967Z,58.72
2023-02-15T00:19:27.719Z,58.88
2023-02-15T00:21:54.330Z,59.16
2023-02-15T00:24:21.110Z,59.54
2023-02-15T00:26:49.376Z,60.04
2023-02-15T00:29:17.927Z,60.33
2023-02-15T00:31:44.662Z,60.44
2023-02-15T00:34:19.580Z,60.39
2023-02-15T00:36:47.170Z,60.89
2023-02-15T00:39:15.990Z,60.81
2023-02-15T00:41:44.784Z,61.01
2023-02-15T00:44:13.297Z,60.86
2023-02-15T00:46:41.263Z,60.91
2023-02-15T00:49:10.119Z,60.65
2023-02-15T00:51:37.942Z,60.76
2023-02-15T00:54:04.545Z,60.54
2023-02-15T00:56:31.253Z,60.58
2023-02-15T00:58:58.338Z,60.55
2023-02-15T01:01:26.893Z,60.46
2023-02-15T01:03:54.324Z,60.55
2023-02-15T01:06:21.256Z,60.51
2023-02-15T01:08:48.722Z,60.59
2023-02-15T01:11:24.910Z,60.81
2023-02-15T01:14:00.724Z,60.89
2023-02-15T01:16:29.263Z,61.20
2023-02-15T01:18:57.022Z,61.36
2023-02-15T01:21:25.966Z,61.63
2023-02-15T01:23:53.008Z,61.64
2023-02-15T01:26:19.951Z,61.64
2023-02-15T01:28:47.247Z,61.65
2023-02-15T01:31:16.754Z,61.68
2023-02-15T01:33:45.864Z,61.52
2023-02-15T01:36:12.744Z,61.57
2023-02-15T01:38:41.091Z,61.54
2023-02-15T01:41:20.939Z,61.65
2023-02-15T01:43:59.715Z,61.46
2023-02-15T01:46:36.405Z,61.53
2023-02-15T01:49:19.446Z,61.39
2023-02-15T01:51:49.285Z,61.25
2023-02-15T01:54:25.963Z,61.31
2023-02-15T01:56:55.797Z,61.24
2023-02-15T01:59:24.668Z,61.23
2023-02-15T02:01:55.223Z,61.14
2023-02-15T02:04:34.859Z,61.04
2023-02-15T02:07:02.084Z,61.07
2023-02-15T02:09:30.112Z,61.13
2023-02-15T02:11:57.010Z,61.08
2023-02-15T02:14:25.244Z,61.04
2023-02-15T02:17:16.701Z,61.06
2023-02-15T02:19:44.231Z,61.38
2023-02-15T02:22:49.014Z,61.33
2023-02-15T02:25:21.720Z,61.20
2023-02-15T02:28:06.635Z,61.17
2023-02-15T02:30:42.239Z,60.87
2023-02-15T02:33:22.761Z,60.99
2023-02-15T02:36:09.657Z,60.98
2023-02-15T02:38:58.383Z,61.19
2023-02-15T02:41:28.147Z,61.19
2023-02-15T02:44:19.441Z,61.47
2023-02-15T02:46:59.707Z,61.47
2023-02-15T02:49:35.049Z,61.59
2023-02-15T02:52:05.354Z,61.60
2023-02-15T02:54:36.009Z,61.72
2023-02-15T02:57:09.833Z,61.87
2023-02-15T02:59:46.557Z,61.92
2023-02-15T03:02:22.198Z,61.93
2023-02-15T03:04:59.753Z,61.90
2023-02-15T03:07:29.923Z,62.05
2023-02-15T03:10:00.246Z,62.21
2023-02-15T03:12:45.413Z,62.40
2023-02-15T03:15:21.331Z,62.29
2023-02-15T03:17:54.829Z,62.12
2023-02-15T03:20:31.957Z,61.99
2023-02-15T03:23:11.608Z,61.82
2023-02-15T03:25:42.811Z,61.65
2023-02-15T03:28:18.283Z,61.78
2023-02-15T03:30:49.724Z,61.58
2023-02-15T03:33:17.009Z,61.41
2023-02-15T03:35:50.380Z,61.16
2023-02-15T03:38:27.079Z,61.07
2023-02-15T03:41:12.752Z,61.19
2023-02-15T03:43:57.771Z,61.05
2023-02-15T03:46:31.362Z,60.94
2023-02-15T03:49:04.927Z,60.92
2023-02-15T03:51:39.172Z,60.76
2023-02-15T03:54:43.729Z,60.65
2023-02-15T03:57:41.307Z,60.59
2023-02-15T04:00:42.724Z,60.48
2023-02-15T04:03:15.669Z,60.88
2023-02-15T04:05:45.704Z,60.72
2023-02-15T04:08:14.000Z,60.40
2023-02-15T04:10:53.441Z,60.52
2023-02-15T04:13:21.800Z,60.44
2023-02-15T04:16:07.816Z,60.60
2023-02-15T04:18:58.670Z,60.25
2023-02-15T04:21:46.512Z,60.06
2023-02-15T04:24:32.498Z,60.02
2023-02-15T04:27:00.235Z,59.93
2023-02-15T04:29:28.206Z,60.17
2023-02-15T04:31:57.149Z,60.13
2023-02-15T04:34:24.266Z,60.24
2023-02-15T04:36:51.375Z,60.15
2023-02-15T04:39:19.566Z,60.26
2023-02-15T04:41:46.748Z,60.01
2023-02-15T04:44:13.485Z,59.77
2023-02-15T04:46:40.037Z,59.84
2023-02-15T04:49:06.853Z,60.17
2023-02-15T04:51:33.623Z,60.17
2023-02-15T04:54:00.210Z,60.17
2023-02-15T04:56:26.932Z,60.09
2023-02-15T04:58:53.563Z,60.13
2023-02-15T05:01:20.353Z,60.24
2023-02-15T05:03:47.480Z,60.72
2023-02-15T05:06:14.173Z,60.89
2023-02-15T05:08:40.851Z,60.92
2023-02-15T05:11:07.529Z,60.95
2023-02-15T05:13:34.260Z,61.14
2023-02-15T05:16:01.253Z,61.12
2023-02-15T05:18:28.167Z,61.28
2023-02-15T05:20:54.877Z,61.42
2023-02-15T05:23:21.555Z,61.57
2023-02-15T05:26:07.526Z,61.45
2023-02-15T05:28:34.681Z,61.42
2023-02-15T05:31:04.347Z,61.38
2023-02-15T05:33:31.851Z,61.37
2023-02-15T05:35:58.832Z,61.49
2023-02-15T05:38:25.764Z,61.47
2023-02-15T05:40:53.301Z,61.52
2023-02-15T05:43:20.771Z,61.60
2023-02-15T05:45:49.435Z,61.85
2023-02-15T05:48:17.449Z,61.76
2023-02-15T05:50:44.560Z,61.48
2023-02-15T05:53:11.479Z,61.40
2023-02-15T05:55:39.943Z,61.73
2023-02-15T05:58:07.558Z,61.75
2023-02-15T06:00:37.346Z,61.54
2023-02-15T06:03:04.828Z,61.50
2023-02-15T06:05:31.439Z,61.68
2023-02-15T06:07:58.208Z,61.54
2023-02-15T06:10:24.956Z,61.70
2023-02-15T06:12:51.499Z,61.77
2023-02-15T06:15:18.269Z,61.86
2023-02-15T06:17:44.972Z,61.81
2023-02-15T06:20:12.265Z,61.97
2023-02-15T06:22:38.895Z,61.96
2023-02-15T06:25:05.948Z,61.95
2023-02-15T06:27:32.750Z,61.68
2023-02-15T06:29:59.495Z,61.59
2023-02-15T06:32:26.099Z,61.76
2023-02-15T06:34:52.799Z,61.65
2023-02-15T06:37:19.476Z,61.53
2023-02-15T06:39:46.371Z,61.55
2023-02-15T06:42:12.898Z,61.81
2023-02-15T06:44:39.598Z,62.14
2023-02-15T06:47:06.201Z,62.19
2023-02-15T06:49:32.851Z,62.22
2023-02-15T06:51:59.569Z,62.58
2023-02-15T06:54:26.181Z,62.73
2023-02-15T06:56:52.804Z,62.74
2023-02-15T06:59:19.567Z,62.45
2023-02-15T07:01:46.481Z,62.34
2023-02-15T07:04:13.507Z,62.29
2023-02-15T07:06:40.174Z,62.17
2023-02-15T07:09:07.311Z,62.13
2023-02-15T07:11:53.376Z,62.15
2023-02-15T07:14:20.189Z,62.00
2023-02-15T07:16:47.593Z,61.94
2023-02-15T07:19:14.293Z,61.96
2023-02-15T07:21:40.849Z,61.85
2023-02-15T07:24:07.548Z,61.64
2023-02-15T07:26:34.693Z,61.78
2023-02-15T07:29:01.306Z,61.61
2023-02-15T07:31:27.896Z,61.63
2023-02-15T07:33:54.657Z,61.54
2023-02-15T07:36:21.451Z,61.87
2023-02-15T07:38:48.181Z,62.06
2023-02-15T07:41:15.578Z,62.12
2023-02-15T07:43:44.691Z,62.55
2023-02-15T07:46:14.349Z,62.58
2023-02-15T07:48:41.895Z,63.40
2023-02-15T07:51:11.393Z,63.24
2023-02-15T07:53:39.605Z,62.99
2023-02-15T07:56:10.088Z,63.43
2023-02-15T07:58:52.977Z,62.46
2023-02-15T08:01:22.664Z,62.20
2023-02-15T08:03:50.335Z,61.47
2023-02-15T08:06:17.649Z,62.24
2023-02-15T08:08:44.434Z,62.92
2023-02-15T08:11:26.905Z,62.30
2023-02-15T08:14:15.510Z,62.18
2023-02-15T08:16:46.522Z,62.02
2023-02-15T08:19:18.506Z,62.63
2023-02-15T08:21:47.993Z,61.96
2023-02-15T08:24:16.321Z,62.05
2023-02-15T08:26:46.136Z,61.36
2023-02-15T08:29:12.833Z,61.53
2023-02-15T08:31:39.789Z,61.63
2023-02-15T08:34:06.950Z,61.81
2023-02-15T08:36:34.055Z,61.75
2023-02-15T08:39:04.549Z,61.46
2023-02-15T08:41:37.071Z,62.01
2023-02-15T08:44:07.722Z,61.70
2023-02-15T08:46:36.918Z,61.73
2023-02-15T08:49:04.577Z,63.07
2023-02-15T08:51:34.238Z,62.00
2023-02-15T08:54:04.534Z,60.85
2023-02-15T08:56:35.272Z,60.39
2023-02-15T08:59:02.215Z,59.97
2023-02-15T09:01:32.587Z,60.18
2023-02-15T09:04:10.883Z,60.22
2023-02-15T09:06:39.340Z,59.38
2023-02-15T09:09:07.386Z,58.75
2023-02-15T09:11:37.243Z,58.49
2023-02-15T09:14:07.083Z,59.56
2023-02-15T09:16:35.754Z,58.53
2023-02-15T09:19:05.747Z,57.89
2023-02-15T09:21:33.942Z,57.62
2023-02-15T09:24:03.604Z,58.07
2023-02-15T09:26:32.089Z,57.11
2023-02-15T09:29:02.026Z,58.74
2023-02-15T09:31:31.664Z,57.54
2023-02-15T09:34:01.838Z,58.15
2023-02-15T09:36:35.284Z,56.88
2023-02-15T09:39:17.377Z,57.08
2023-02-15T09:41:53.120Z,57.35
2023-02-15T09:44:47.900Z,57.69
2023-02-15T09:47:42.436Z,57.51
2023-02-15T09:50:36.377Z,56.43
2023-02-15T09:53:41.290Z,56.10
2023-02-15T09:56:21.122Z,56.73
2023-02-15T09:59:09.872Z,56.27
2023-02-15T10:01:48.671Z,57.57
2023-02-15T10:04:29.195Z,57.24
2023-02-15T10:07:17.225Z,56.73
2023-02-15T10:10:02.704Z,54.50
2023-02-15T10:12:53.355Z,55.76
2023-02-15T10:15:25.272Z,54.73
2023-02-15T10:18:13.787Z,54.91
2023-02-15T10:21:11.225Z,54.47
2023-02-15T10:23:48.542Z,54.06
2023-02-15T10:26:23.818Z,54.61
2023-02-15T10:28:52.511Z,54.27
2023-02-15T10:31:25.095Z,54.63
2023-02-15T10:34:13.689Z,55.97
2023-02-15T10:36:49.337Z,53.98
2023-02-15T10:39:29.987Z,53.63
2023-02-15T10:42:18.471Z,53.19
2023-02-15T10:44:54.202Z,53.02
2023-02-15T10:47:52.831Z,51.38
2023-02-15T10:50:28.024Z,51.92
2023-02-15T10:52:59.234Z,51.93
2023-02-15T10:55:52.681Z,51.24
2023-02-15T10:58:36.080Z,51.22
2023-02-15T11:01:13.120Z,51.30
2023-02-15T11:03:49.080Z,50.14
2023-02-15T11:06:20.578Z,49.91
2023-02-15T11:08:58.567Z,50.56
2023-02-15T11:11:40.439Z,49.79
2023-02-15T11:14:21.455Z,50.71
2023-02-15T11:16:54.744Z,50.59
2023-02-15T11:19:33.328Z,50.68
2023-02-15T11:22:04.948Z,51.10
2023-02-15T11:24:35.825Z,50.62
2023-02-15T11:27:24.680Z,50.16
2023-02-15T11:30:10.428Z,48.63
2023-02-15T11:32:44.717Z,48.45
2023-02-15T11:35:11.420Z,48.45
2023-02-15T11:37:45.207Z,48.69
2023-02-15T11:40:36.411Z,49.10
2023-02-15T11:43:09.055Z,49.55
2023-02-15T11:45:36.294Z,50.52
2023-02-15T11:48:11.156Z,50.08
2023-02-15T11:50:38.207Z,49.16
2023-02-15T11:53:12.532Z,49.49
2023-02-15T11:55:39.568Z,49.05
2023-02-15T11:58:21.514Z,48.90
2023-02-15T12:00:51.481Z,48.15
2023-02-15T12:03:30.323Z,47.39
2023-02-15T12:06:02.618Z,47.86
2023-02-15T12:08:41.551Z,48.85
2023-02-15T12:11:13.465Z,48.17
2023-02-15T12:13:57.376Z,48.35
2023-02-15T12:16:24.865Z,49.49
2023-02-15T12:18:54.711Z,49.62
2023-02-15T12:21:29.718Z,48.87
2023-02-15T12:24:05.087Z,48.96
2023-02-15T12:26:35.479Z,48.59
2023-02-15T12:29:13.822Z,48.51
2023-02-15T12:31:43.061Z,48.68
2023-02-15T12:34:44.818Z,48.40
2023-02-15T12:37:22.436Z,47.77
2023-02-15T12:39:57.013Z,46.41
2023-02-15T12:42:25.852Z,46.71
2023-02-15T12:45:00.193Z,47.45
2023-02-15T12:47:29.385Z,47.65
2023-02-15T12:50:18.295Z,47.26
2023-02-15T12:52:50.124Z,47.78
2023-02-15T12:55:24.787Z,46.69
2023-02-15T12:58:06.962Z,46.30
2023-02-15T13:00:33.774Z,45.51
2023-02-15T13:03:01.614Z,45.53
2023-02-15T13:05:45.132Z,46.03
2023-02-15T13:08:19.765Z,45.42
2023-02-15T13:11:38.566Z,45.43
2023-02-15T13:14:27.679Z,45.83
2023-02-15T13:16:59.282Z,46.02
2023-02-15T13:19:46.082Z,45.53
2023-02-15T13:22:20.712Z,46.32
2023-02-15T13:24:51.204Z,45.56
2023-02-15T13:27:21.480Z,46.40
2023-02-15T13:29:52.757Z,45.54
2023-02-15T13:32:29.009Z,44.72
2023-02-15T13:35:01.044Z,45.42
2023-02-15T13:37:33.572Z,44.62
2023-02-15T13:40:07.988Z,44.51
2023-02-15T13:42:44.038Z,44.36
2023-02-15T13:45:31.696Z,44.56
2023-02-15T13:48:03.593Z,44.95
2023-02-15T13:50:56.202Z,44.03
2023-02-15T13:53:26.162Z,43.58
2023-02-15T13:55:58.673Z,43.49
2023-02-15T13:58:47.655Z,43.57
2023-02-15T14:01:33.080Z,43.35
2023-02-15T14:04:20.272Z,43.97
2023-02-15T14:06:50.028Z,44.75
2023-02-15T14:09:42.557Z,47.03
2023-02-15T14:12:22.686Z,46.11
2023-02-15T14:14:55.510Z,45.97
2023-02-15T14:17:27.835Z,45.41
2023-02-15T14:20:18.235Z,45.37
2023-02-15T14:22:55.879Z,44.61
2023-02-15T14:25:58.263Z,44.89
2023-02-15T14:28:49.304Z,44.13
2023-02-15T14:31:17.284Z,44.89
2023-02-15T14:33:58.458Z,44.09
2023-02-15T14:36:28.979Z,44.25
2023-02-15T14:39:46.573Z,44.53
2023-02-15T14:42:25.663Z,44.04
2023-02-15T14:45:12.626Z,44.82
2023-02-15T14:47:45.343Z,44.97
2023-02-15T14:50:31.012Z,45.31
2023-02-15T14:53:16.687Z,45.07
2023-02-15T14:55:43.472Z,46.44
2023-02-15T14:58:14.551Z,46.08
2023-02-15T15:00:43.027Z,45.33
2023-02-15T15:03:24.170Z,45.55
2023-02-15T15:06:00.439Z,45.19
2023-02-15T15:08:35.390Z,45.38
2023-02-15T15:11:42.944Z,46.03
2023-02-15T15:14:31.531Z,46.29
2023-02-15T15:16:59.926Z,45.41
2023-02-15T15:19:52.250Z,45.09
2023-02-15T15:22:28.880Z,44.72
2023-02-15T15:24:56.490Z,45.24
2023-02-15T15:27:52.053Z,45.78
2023-02-15T15:30:18.696Z,46.01
2023-02-15T15:32:50.791Z,46.62
2023-02-15T15:35:53.018Z,45.78
2023-02-15T15:38:28.861Z,46.84
2023-02-15T15:41:20.197Z,46.03
2023-02-15T15:44:19.862Z,45.65
2023-02-15T15:47:05.139Z,45.95
2023-02-15T15:49:35.901Z,45.84
2023-02-15T15:52:09.990Z,46.76
2023-02-15T15:54:40.957Z,46.41
2023-02-15T15:57:35.867Z,46.47
2023-02-15T16:00:03.913Z,46.27
2023-02-15T16:02:51.401Z,46.49
2023-02-15T16:05:18.123Z,47.43
2023-02-15T16:07:44.780Z,46.83
2023-02-15T16:10:27.323Z,46.94
2023-02-15T16:12:55.866Z,47.57
2023-02-15T16:15:37.088Z,47.82
2023-02-15T16:18:04.673Z,47.85
2023-02-15T16:20:37.526Z,48.64
2023-02-15T16:23:17.723Z,49.03
2023-02-15T16:26:08.813Z,48.51
2023-02-15T16:28:35.658Z,48.61
2023-02-15T16:31:14.450Z,49.01
2023-02-15T16:33:42.815Z,49.36
2023-02-15T16:36:20.678Z,49.87
2023-02-15T16:38:47.352Z,49.51
2023-02-15T16:41:20.925Z,49.50
2023-02-15T16:43:50.330Z,50.01
2023-02-15T16:46:23.245Z,50.08
2023-02-15T16:48:53.317Z,50.01
2023-02-15T16:51:23.958Z,50.01
2023-02-15T16:53:52.683Z,50.15
2023-02-15T16:56:25.147Z,50.76
2023-02-15T16:58:54.813Z,50.69
2023-02-15T17:01:25.973Z,50.38
2023-02-15T17:04:14.067Z,50.67
2023-02-15T17:06:40.924Z,50.91
2023-02-15T17:09:19.422Z,51.22
2023-02-15T17:11:46.145Z,51.17
2023-02-15T17:14:21.883Z,51.06
2023-02-15T17:17:02.369Z,51.37
2023-02-15T17:19:41.471Z,51.68
2023-02-15T17:22:08.484Z,51.56
2023-02-15T17:24:38.579Z,51.68
2023-02-15T17:27:25.037Z,51.92
2023-02-15T17:30:01.607Z,52.19
2023-02-15T17:32:31.290Z,52.13
2023-02-15T17:35:00.946Z,52.31
2023-02-15T17:37:43.846Z,51.98
2023-02-15T17:40:21.718Z,52.60
2023-02-15T17:42:49.011Z,52.21
2023-02-15T17:45:16.192Z,52.49
2023-02-15T17:47:43.750Z,52.45
2023-02-15T17:50:20.807Z,52.73
2023-02-15T17:52:48.172Z,53.16
2023-02-15T17:55:36.217Z,52.82
2023-02-15T17:58:08.803Z,52.78
2023-02-15T18:00:56.713Z,53.20
2023-02-15T18:03:43.842Z,53.33
2023-02-15T18:06:32.556Z,53.22
2023-02-15T18:09:17.762Z,53.47
2023-02-15T18:11:48.788Z,53.31
2023-02-15T18:14:15.441Z,53.57
2023-02-15T18:16:45.817Z,53.66
2023-02-15T18:19:25.438Z,54.00
2023-02-15T18:21:53.347Z,53.88
2023-02-15T18:24:25.030Z,53.72
2023-02-15T18:26:53.588Z,53.94
2023-02-15T18:29:21.362Z,53.96
2023-02-15T18:31:52.814Z,53.94
2023-02-15T18:34:25.371Z,54.24
2023-02-15T18:36:52.993Z,53.89
2023-02-15T18:39:27.188Z,53.91
2023-02-15T18:41:54.364Z,54.01
2023-02-15T18:44:21.087Z,54.05
2023-02-15T18:46:47.791Z,54.08
2023-02-15T18:49:14.589Z,54.07
2023-02-15T18:51:41.413Z,54.40
2023-02-15T18:54:20.065Z,54.28
2023-02-15T18:56:49.107Z,54.14
2023-02-15T18:59:17.553Z,54.09
2023-02-15T19:01:44.360Z,54.20
2023-02-15T19:04:11.174Z,54.44
2023-02-15T19:06:43.485Z,54.54
2023-02-15T19:09:16.158Z,54.54
2023-02-15T19:11:47.478Z,54.38
2023-02-15T19:14:25.254Z,54.81
2023-02-15T19:16:52.531Z,54.42
2023-02-15T19:19:19.392Z,54.44
2023-02-15T19:21:46.611Z,54.28
2023-02-15T19:24:25.170Z,54.32
2023-02-15T19:26:52.912Z,54.49
2023-02-15T19:29:30.035Z,54.44
2023-02-15T19:31:58.181Z,54.32
2023-02-15T19:34:25.208Z,54.17
2023-02-15T19:36:54.390Z,54.25
2023-02-15T19:39:37.625Z,54.14
2023-02-15T19:42:04.586Z,53.99
2023-02-15T19:44:31.415Z,53.97
2023-02-15T19:46:58.140Z,54.26
2023-02-15T19:49:26.902Z,54.02
2023-02-15T19:51:53.890Z,53.92
2023-02-15T19:54:33.508Z,54.23
2023-02-15T19:57:03.339Z,53.84
2023-02-15T19:59:35.090Z,53.45
2023-02-15T20:02:03.088Z,53.64
2023-02-15T20:04:30.026Z,53.73
2023-02-15T20:07:02.531Z,53.60
2023-02-15T20:09:34.762Z,53.61
2023-02-15T20:12:01.921Z,53.42
2023-02-15T20:14:29.083Z,53.50
2023-02-15T20:16:58.356Z,53.44
2023-02-15T20:19:25.298Z,53.10
2023-02-15T20:21:54.807Z,53.49
2023-02-15T20:24:24.340Z,53.32
2023-02-15T20:26:52.998Z,53.42
2023-02-15T20:29:20.791Z,53.07
2023-02-15T20:31:47.826Z,53.23
2023-02-15T20:34:14.686Z,53.24
2023-02-15T20:36:44.111Z,53.27
2023-02-15T20:39:22.268Z,53.18
2023-02-15T20:41:49.403Z,53.46
2023-02-15T20:44:18.466Z,53.66
2023-02-15T20:46:46.174Z,53.38
2023-02-15T20:49:13.083Z,53.28
2023-02-15T20:51:41.731Z,53.53
2023-02-15T20:54:17.565Z,53.44
2023-02-15T20:56:45.430Z,53.67
2023-02-15T20:59:20.985Z,53.73
2023-02-15T21:01:48.882Z,53.86
2023-02-15T21:04:30.627Z,53.88
2023-02-15T21:06:57.569Z,53.97
2023-02-15T21:09:24.350Z,53.95
2023-02-15T21:11:53.782Z,53.81
2023-02-15T21:14:23.570Z,54.04
2023-02-15T21:16:51.108Z,54.35
2023-02-15T21:19:21.746Z,54.47
2023-02-15T21:21:51.332Z,54.34
2023-02-15T21:24:29.417Z,54.37
2023-02-15T21:27:00.789Z,54.02
2023-02-15T21:29:29.520Z,54.02
2023-02-15T21:32:00.593Z,54.25
2023-02-15T21:34:27.480Z,54.39
2023-02-15T21:36:56.694Z,54.18
2023-02-15T21:39:29.424Z,54.32
2023-02-15T21:42:15.580Z,54.21
2023-02-15T21:45:11.794Z,54.38
2023-02-15T21:47:50.488Z,54.00
2023-02-15T21:50:40.921Z,54.02
2023-02-15T21:53:12.201Z,53.92
2023-02-15T21:55:40.341Z,53.81
2023-02-15T21:58:07.375Z,54.19
2023-02-15T22:00:34.241Z,53.83
2023-02-15T22:03:02.137Z,53.81
2023-02-15T22:05:32.279Z,53.67
2023-02-15T22:08:00.114Z,53.74
2023-02-15T22:10:30.316Z,53.56
2023-02-15T22:12:59.925Z,53.47
2023-02-15T22:15:35.732Z,53.76
2023-02-15T22:18:05.271Z,53.47
2023-02-15T22:20:32.395Z,53.47
2023-02-15T22:22:59.097Z,53.75
2023-02-15T22:25:26.694Z,53.28
2023-02-15T22:27:54.762Z,53.23
2023-02-15T22:30:30.781Z,52.89
2023-02-15T22:32:58.639Z,53.02
2023-02-15T22:35:28.538Z,53.11
2023-02-15T22:37:55.332Z,53.22
2023-02-15T22:40:27.673Z,53.28
2023-02-15T22:42:55.119Z,53.16
2023-02-15T22:45:24.616Z,53.56
2023-02-15T22:47:57.325Z,53.32
2023-02-15T22:50:25.558Z,53.28
2023-02-15T22:52:52.616Z,53.31
2023-02-15T22:55:22.392Z,53.14
2023-02-15T22:57:52.795Z,53.17
2023-02-15T23:00:24.546Z,53.09
2023-02-15T23:02:51.449Z,53.30
2023-02-15T23:05:23.750Z,53.23
2023-02-15T23:07:51.209Z,53.30
2023-02-15T23:10:22.785Z,53.34
2023-02-15T23:13:13.504Z,53.97
2023-02-15T23:15:40.592Z,54.48
2023-02-15T23:18:18.202Z,54.85
2023-02-15T23:20:50.982Z,54.97
2023-02-15T23:23:20.575Z,55.22
2023-02-15T23:25:48.814Z,55.12
2023-02-15T23:28:23.220Z,55.12
2023-02-15T23:30:50.388Z,55.02
2023-02-15T23:33:20.381Z,54.74
2023-02-15T23:35:47.292Z,54.76
2023-02-15T23:38:27.578Z,54.60
2023-02-15T23:41:19.198Z,54.22
2023-02-15T23:44:15.252Z,54.28
2023-02-15T23:46:45.421Z,54.36
2023-02-15T23:49:17.989Z,54.36
2023-02-15T23:51:48.040Z,54.63
2023-02-15T23:54:16.528Z,54.62
2023-02-15T23:56:45.934Z,54.76
2023-02-15T23:59:18.222Z,54.50
